Time;durP1;ratioP1;P1;durP2;ratioP2;P2;SDS_P1;SDS_P2;PMS_P1;PMS_P2;Temp;Humidity;BMP_temperature;BMP_pressure;BME280_temperature;BME280_humidity;BME280_pressure;Samples;Min_cycle;Max_cycle;Signal;HPM_P1;HPM_P2
2022/12/23 00:01:14;;;;;;;151.70;68.00;;;7.20;99.90;;;;;;5017596;28;20077;-73
2022/12/23 00:03:41;;;;;;;129.25;61.88;;;7.20;99.90;;;;;;5025233;28;20047;-73
2022/12/23 00:06:14;;;;;;;196.95;72.35;;;7.20;99.90;;;;;;5021948;28;20128;-73
2022/12/23 00:08:41;;;;;;;141.07;65.00;;;7.20;99.90;;;;;;5022520;28;20045;-73
2022/12/23 00:11:12;;;;;;;234.70;74.18;;;7.20;99.90;;;;;;5022631;28;20053;-73
2022/12/23 00:16:21;;;;;;;178.63;73.05;;;7.20;99.90;;;;;;5027397;28;20132;-74
2022/12/23 00:18:47;;;;;;;195.93;70.63;;;7.20;99.90;;;;;;5024829;28;20163;-74
2022/12/23 00:21:16;;;;;;;283.95;87.60;;;7.20;99.90;;;;;;5021491;28;20057;-74
2022/12/23 00:23:42;;;;;;;;;;;7.10;99.90;;;;;;5015054;28;20115;-73
2022/12/23 00:26:16;;;;;;;156.07;67.72;;;7.10;99.90;;;;;;5025474;28;20735;-74
2022/12/23 00:28:42;;;;;;;130.00;64.93;;;7.10;99.90;;;;;;4998767;28;20103;-73
2022/12/23 00:31:09;;;;;;;141.40;64.95;;;7.10;99.90;;;;;;5019491;28;20046;-73
2022/12/23 00:33:41;;;;;;;119.60;61.38;;;7.20;99.90;;;;;;5029261;28;20058;-73
2022/12/23 00:36:17;;;;;;;139.13;64.80;;;7.20;99.90;;;;;;5017179;28;20577;-73
2022/12/23 00:44:15;;;;;;;;;;;7.20;99.90;;;;;;5024778;28;20147;-73
2022/12/23 00:46:41;;;;;;;114.45;58.08;;;7.10;99.90;;;;;;5026435;28;20038;-73
2022/12/23 00:51:52;;;;;;;147.27;63.55;;;7.10;99.90;;;;;;5044427;28;20054;-73
2022/12/23 00:54:18;;;;;;;247.75;78.75;;;7.20;99.90;;;;;;5027262;28;20071;-73
2022/12/23 00:56:45;;;;;;;166.25;68.00;;;7.20;99.90;;;;;;5026478;28;20912;-73
2022/12/23 00:59:11;;;;;;;129.18;65.28;;;7.20;99.90;;;;;;5028571;28;20103;-72
2022/12/23 01:07:05;;;;;;;141.88;66.05;;;7.20;99.90;;;;;;5025251;28;20832;-73
2022/12/23 01:09:32;;;;;;;145.55;65.45;;;7.10;99.90;;;;;;5027119;28;20057;-73
2022/12/23 01:11:57;;;;;;;118.63;59.58;;;7.20;99.90;;;;;;5028013;28;20053;-73
2022/12/23 01:14:24;;;;;;;131.60;63.05;;;7.10;99.90;;;;;;5025950;28;20092;-73
2022/12/23 01:16:49;;;;;;;150.25;67.50;;;7.20;99.90;;;;;;5020507;28;20042;-73
2022/12/23 01:19:15;;;;;;;128.57;63.38;;;7.20;99.90;;;;;;5027643;28;20111;-72
2022/12/23 01:21:40;;;;;;;139.63;69.35;;;7.20;99.90;;;;;;5026517;28;20067;-73
2022/12/23 01:24:07;;;;;;;134.55;63.80;;;7.20;99.90;;;;;;5018185;28;20068;-72
2022/12/23 01:26:33;;;;;;;164.43;67.45;;;7.20;99.90;;;;;;5027266;28;20064;-73
2022/12/23 01:28:59;;;;;;;137.65;61.75;;;7.10;99.90;;;;;;5027201;28;20053;-73
2022/12/23 01:31:25;;;;;;;110.65;57.55;;;7.20;99.90;;;;;;5018167;28;20091;-73
2022/12/23 01:33:52;;;;;;;133.00;61.65;;;7.10;99.90;;;;;;5022737;28;20048;-73
2022/12/23 01:36:18;;;;;;;125.65;61.42;;;7.20;99.90;;;;;;5034338;28;20067;-73
2022/12/23 01:38:44;;;;;;;128.35;58.17;;;7.20;99.90;;;;;;5023613;28;20502;-73
2022/12/23 01:45:04;;;;;;;151.85;66.47;;;7.20;99.90;;;;;;5023054;28;20888;-73
2022/12/23 01:47:36;;;;;;;117.85;59.53;;;7.20;99.90;;;;;;4979832;28;20046;-73
2022/12/23 01:50:15;;;;;;;109.93;53.88;;;7.20;99.90;;;;;;4961957;28;20050;-73
2022/12/23 01:52:49;;;;;;;115.15;54.13;;;7.20;99.90;;;;;;4999554;28;20133;-73
2022/12/23 01:55:19;;;;;;;102.72;51.75;;;7.20;99.90;;;;;;5025444;28;20045;-74
2022/12/23 01:57:47;;;;;;;106.50;52.75;;;7.20;99.90;;;;;;5019159;28;20055;-73
2022/12/23 02:05:44;;;;;;;106.00;51.60;;;7.20;99.90;;;;;;5017697;28;20053;-74
2022/12/23 02:11:14;;;;;;;103.18;51.78;;;7.20;99.90;;;;;;5034099;28;20061;-74
2022/12/23 02:16:49;;;;;;;100.50;50.80;;;7.20;99.90;;;;;;5025942;28;20049;-73
2022/12/23 02:19:34;;;;;;;102.68;50.63;;;7.20;99.90;;;;;;5026878;28;20056;-73
2022/12/23 02:22:25;;;;;;;95.07;49.05;;;7.20;99.90;;;;;;5025718;28;20140;-74
2022/12/23 02:25:03;;;;;;;110.25;49.72;;;7.20;99.90;;;;;;5021933;28;20115;-73
2022/12/23 02:27:32;;;;;;;113.63;56.25;;;7.20;99.90;;;;;;5018303;28;20053;-73
2022/12/23 02:30:17;;;;;;;108.72;50.10;;;7.20;99.90;;;;;;5025567;28;20061;-73
2022/12/23 02:33:10;;;;;;;142.55;59.80;;;7.20;99.90;;;;;;5027520;28;20050;-73
2022/12/23 02:35:50;;;;;;;146.18;63.10;;;7.20;99.90;;;;;;5023481;28;20049;-73
2022/12/23 02:38:56;;;;;;;110.55;54.17;;;7.20;99.90;;;;;;5021851;28;20065;-73
2022/12/23 02:41:46;;;;;;;115.78;53.30;;;7.20;99.90;;;;;;5039787;28;20054;-73
2022/12/23 02:44:31;;;;;;;103.40;51.83;;;7.20;99.90;;;;;;5026382;28;20132;-73
2022/12/23 02:47:09;;;;;;;103.88;52.28;;;7.20;99.90;;;;;;5023368;28;20473;-73
2022/12/23 02:49:39;;;;;;;110.30;53.42;;;7.20;99.90;;;;;;5026591;28;20041;-73
2022/12/23 02:52:11;;;;;;;101.10;50.95;;;7.20;99.90;;;;;;5026128;28;20057;-73
2022/12/23 02:54:50;;;;;;;94.95;49.08;;;7.20;99.90;;;;;;5021429;28;20041;-73
2022/12/23 02:57:21;;;;;;;92.50;48.03;;;7.20;99.90;;;;;;5037059;28;20060;-73
2022/12/23 02:59:50;;;;;;;107.80;51.40;;;7.20;99.90;;;;;;5042018;28;20665;-73
2022/12/23 03:02:17;;;;;;;122.07;54.97;;;7.20;99.90;;;;;;5026409;28;20526;-73
2022/12/23 03:04:45;;;;;;;108.00;51.22;;;7.20;99.90;;;;;;5027966;28;20049;-73
2022/12/23 03:07:30;;;;;;;102.85;48.67;;;7.20;99.90;;;;;;5024376;28;20391;-73
2022/12/23 03:10:51;;;;;;;103.95;48.08;;;7.20;99.90;;;;;;5025842;28;20065;-73
2022/12/23 03:13:47;;;;;;;91.28;47.38;;;7.20;99.90;;;;;;4980233;28;20437;-73
2022/12/23 03:16:54;;;;;;;109.25;49.17;;;7.20;99.90;;;;;;5040072;28;20099;-73
2022/12/23 03:19:38;;;;;;;103.95;45.40;;;7.20;99.90;;;;;;5015209;28;20053;-73
2022/12/23 03:22:30;;;;;;;108.15;48.33;;;7.20;99.90;;;;;;5027818;28;20053;-73
2022/12/23 03:25:10;;;;;;;121.10;48.97;;;7.20;99.90;;;;;;5025921;28;20053;-73
2022/12/23 03:27:44;;;;;;;130.90;49.30;;;7.20;99.90;;;;;;5023856;28;20048;-73
2022/12/23 03:30:15;;;;;;;112.88;46.45;;;7.20;99.90;;;;;;5024575;28;20085;-73
2022/12/23 03:32:46;;;;;;;151.93;50.30;;;7.20;99.90;;;;;;5015176;28;20041;-72
2022/12/23 03:35:18;;;;;;;126.10;49.03;;;7.20;99.90;;;;;;5023896;28;20045;-73
2022/12/23 03:37:48;;;;;;;106.68;42.67;;;7.20;99.90;;;;;;5025438;28;20120;-72
2022/12/23 03:40:31;;;;;;;138.90;49.47;;;7.20;99.90;;;;;;5016819;28;20372;-72
2022/12/23 03:43:02;;;;;;;122.22;46.00;;;7.30;99.90;;;;;;5036122;28;20521;-72
2022/12/23 03:45:33;;;;;;;109.43;44.58;;;7.20;99.90;;;;;;5024297;28;20060;-73
2022/12/23 03:48:04;;;;;;;104.30;44.83;;;7.30;99.90;;;;;;5024675;28;20160;-72
2022/12/23 03:50:31;;;;;;;116.50;46.55;;;7.20;99.90;;;;;;5025682;28;20041;-72
2022/12/23 03:53:08;;;;;;;107.80;45.03;;;7.20;99.90;;;;;;5025144;28;20497;-72
2022/12/23 03:55:39;;;;;;;103.82;44.03;;;7.20;99.90;;;;;;5025565;28;20057;-72
2022/12/23 03:58:25;;;;;;;96.82;41.47;;;7.20;99.90;;;;;;5025232;28;20067;-72
2022/12/23 04:01:16;;;;;;;107.82;45.10;;;7.30;99.90;;;;;;5016646;28;20080;-72
2022/12/23 04:04:09;;;;;;;114.03;45.40;;;7.20;99.90;;;;;;5021026;28;20077;-72
2022/12/23 04:06:44;;;;;;;130.63;49.33;;;7.20;99.90;;;;;;5024748;28;20048;-72
2022/12/23 04:09:11;;;;;;;116.10;45.42;;;7.20;99.90;;;;;;5024933;28;20128;-72
2022/12/23 04:11:37;;;;;;;106.65;44.33;;;7.20;99.90;;;;;;5024444;28;20045;-72
2022/12/23 04:14:02;;;;;;;110.72;44.13;;;7.20;99.90;;;;;;5029154;28;20103;-72
2022/12/23 04:16:29;;;;;;;85.50;38.67;;;7.30;99.90;;;;;;5023992;28;20754;-73
2022/12/23 04:18:54;;;;;;;98.50;39.13;;;7.30;99.90;;;;;;5020518;28;20084;-73
2022/12/23 04:21:20;;;;;;;99.28;40.42;;;7.20;99.90;;;;;;5026086;28;20092;-73
2022/12/23 04:23:46;;;;;;;95.57;39.33;;;7.20;99.90;;;;;;5032638;28;20083;-73
2022/12/23 04:26:11;;;;;;;114.85;42.28;;;7.20;99.90;;;;;;5030623;28;20185;-73
2022/12/23 04:28:37;;;;;;;98.97;39.63;;;7.20;99.90;;;;;;5029287;28;20487;-73
2022/12/23 04:31:03;;;;;;;87.03;39.53;;;7.20;99.90;;;;;;5029550;28;20041;-73
2022/12/23 04:33:29;;;;;;;103.97;40.90;;;7.20;99.90;;;;;;5028927;28;20514;-73
2022/12/23 04:35:54;;;;;;;89.90;39.13;;;7.20;99.90;;;;;;5026385;28;20491;-73
2022/12/23 04:38:20;;;;;;;87.45;37.28;;;7.20;99.90;;;;;;5026535;28;20057;-73
2022/12/23 04:40:46;;;;;;;85.20;34.50;;;7.20;99.90;;;;;;5028860;28;20049;-73
2022/12/23 04:43:12;;;;;;;101.88;40.55;;;7.10;99.90;;;;;;5028674;28;20061;-73
2022/12/23 04:45:38;;;;;;;99.82;39.53;;;7.10;99.90;;;;;;5029011;28;20033;-73
2022/12/23 04:48:03;;;;;;;84.60;34.78;;;7.10;99.90;;;;;;5028607;28;20136;-73
2022/12/23 04:50:29;;;;;;;104.68;38.63;;;7.10;99.90;;;;;;5028479;28;20041;-73
2022/12/23 04:52:55;;;;;;;81.55;34.92;;;7.10;99.90;;;;;;5022531;28;20054;-73
2022/12/23 04:55:20;;;;;;;81.03;34.20;;;7.10;99.90;;;;;;5028693;28;20136;-73
2022/12/23 04:57:46;;;;;;;126.30;39.55;;;7.10;99.90;;;;;;5028211;28;20042;-73
2022/12/23 05:00:12;;;;;;;86.18;36.88;;;7.10;99.90;;;;;;5027198;28;20080;-73
2022/12/23 05:02:38;;;;;;;114.93;38.05;;;7.10;99.90;;;;;;5023604;28;20046;-73
2022/12/23 05:05:04;;;;;;;85.97;33.45;;;7.00;99.90;;;;;;5026745;28;20057;-73
2022/12/23 05:07:31;;;;;;;80.70;34.72;;;7.00;99.90;;;;;;5028241;28;20045;-73
2022/12/23 05:10:00;;;;;;;73.70;30.45;;;7.00;99.90;;;;;;5026580;28;20052;-73
2022/12/23 05:12:30;;;;;;;68.05;31.92;;;7.00;99.90;;;;;;5027536;28;20045;-73
2022/12/23 05:14:56;;;;;;;79.03;33.22;;;7.00;99.90;;;;;;5024829;28;20065;-73
2022/12/23 05:17:21;;;;;;;71.40;29.52;;;6.90;99.90;;;;;;5022609;28;20056;-73
2022/12/23 05:19:47;;;;;;;86.03;33.50;;;7.00;99.90;;;;;;5023076;28;20128;-73
2022/12/23 05:22:13;;;;;;;78.13;31.90;;;7.00;99.90;;;;;;5030207;28;20107;-73
2022/12/23 05:24:38;;;;;;;88.63;33.08;;;6.90;99.90;;;;;;5026329;28;20049;-73
2022/12/23 05:27:04;;;;;;;76.15;33.33;;;6.90;99.90;;;;;;5026528;28;20069;-73
2022/12/23 05:29:30;;;;;;;71.15;31.63;;;6.90;99.90;;;;;;5028263;28;20064;-73
2022/12/23 05:31:55;;;;;;;78.90;30.27;;;6.90;99.90;;;;;;5026613;28;20561;-73
2022/12/23 05:34:21;;;;;;;79.20;30.85;;;6.80;99.90;;;;;;5019008;28;20050;-73
2022/12/23 05:36:47;;;;;;;89.53;36.22;;;6.80;99.90;;;;;;5016723;28;20376;-73
2022/12/23 05:39:12;;;;;;;85.15;31.60;;;6.80;99.90;;;;;;5016450;28;20046;-73
2022/12/23 05:41:38;;;;;;;74.43;33.70;;;6.70;99.90;;;;;;5014940;28;20091;-73
2022/12/23 05:44:04;;;;;;;79.53;34.70;;;6.70;99.90;;;;;;5022678;28;20391;-73
2022/12/23 05:46:30;;;;;;;90.60;34.55;;;6.70;99.90;;;;;;5025472;28;20108;-73
2022/12/23 05:48:55;;;;;;;115.13;39.13;;;6.70;99.90;;;;;;5027109;28;20472;-73
2022/12/23 05:51:21;;;;;;;82.78;34.65;;;6.70;99.90;;;;;;5027574;28;20061;-73
2022/12/23 05:53:47;;;;;;;89.95;37.00;;;6.80;99.90;;;;;;5027946;28;20490;-73
2022/12/23 05:56:12;;;;;;;95.38;35.05;;;6.70;99.90;;;;;;5024736;28;20498;-73
2022/12/23 05:58:38;;;;;;;80.25;34.05;;;6.70;99.90;;;;;;5026992;28;20490;-73
2022/12/23 06:01:04;;;;;;;75.55;34.33;;;6.70;99.90;;;;;;5004881;28;20049;-73
2022/12/23 06:03:29;;;;;;;91.97;34.53;;;6.70;99.90;;;;;;5026291;28;20128;-73
2022/12/23 06:05:56;;;;;;;83.63;36.03;;;6.70;99.90;;;;;;5025646;28;20053;-73
2022/12/23 06:08:22;;;;;;;88.20;37.03;;;6.70;99.90;;;;;;5027206;28;20264;-73
2022/12/23 06:10:48;;;;;;;90.38;37.42;;;6.70;99.90;;;;;;5026813;28;20856;-73
2022/12/23 06:13:13;;;;;;;85.05;36.88;;;6.60;99.90;;;;;;5030302;28;20672;-73
2022/12/23 06:15:39;;;;;;;88.75;37.10;;;6.60;99.90;;;;;;5024013;28;20052;-72
2022/12/23 06:18:05;;;;;;;83.60;34.47;;;6.60;99.90;;;;;;5027259;28;20037;-72
2022/12/23 06:20:30;;;;;;;102.32;38.45;;;6.60;99.90;;;;;;5025989;28;20111;-72
2022/12/23 06:22:56;;;;;;;89.30;36.72;;;6.60;99.90;;;;;;5024171;28;20053;-73
2022/12/23 06:25:22;;;;;;;83.78;35.03;;;6.50;99.90;;;;;;5026872;28;20057;-72
2022/12/23 06:27:47;;;;;;;73.50;31.25;;;6.50;99.90;;;;;;5026675;28;20092;-72
2022/12/23 06:30:14;;;;;;;84.20;34.35;;;6.50;99.90;;;;;;5026827;28;20072;-72
2022/12/23 06:32:39;;;;;;;87.18;36.22;;;6.50;99.90;;;;;;5026131;28;20099;-72
2022/12/23 06:35:06;;;;;;;83.60;35.00;;;6.50;99.90;;;;;;5037450;28;20042;-72
2022/12/23 06:37:33;;;;;;;103.70;39.17;;;6.50;99.90;;;;;;5026261;28;20053;-72
2022/12/23 06:39:59;;;;;;;106.53;39.80;;;6.50;99.90;;;;;;5018185;28;20189;-72
2022/12/23 06:42:25;;;;;;;130.88;42.03;;;6.40;99.90;;;;;;5026061;28;20470;-72
2022/12/23 06:44:51;;;;;;;118.28;40.47;;;6.50;99.90;;;;;;5025194;28;20049;-72
2022/12/23 06:47:16;;;;;;;146.93;43.67;;;6.50;99.90;;;;;;5026019;28;20033;-73
2022/12/23 06:49:42;;;;;;;130.52;42.28;;;6.50;99.90;;;;;;5023419;28;20417;-72
2022/12/23 06:52:08;;;;;;;218.68;48.13;;;6.50;99.90;;;;;;5018097;28;20065;-72
2022/12/23 06:54:34;;;;;;;102.72;37.08;;;6.50;99.90;;;;;;5026586;28;20135;-72
2022/12/23 06:57:00;;;;;;;142.93;41.45;;;6.50;99.90;;;;;;5025655;28;20095;-73
2022/12/23 06:59:25;;;;;;;132.65;38.65;;;6.50;99.90;;;;;;5025949;28;20052;-72
2022/12/23 07:01:51;;;;;;;140.57;39.90;;;6.50;99.90;;;;;;5024032;28;20535;-73
2022/12/23 07:04:17;;;;;;;93.63;34.90;;;6.50;99.90;;;;;;5022834;28;20140;-72
2022/12/23 07:06:42;;;;;;;79.05;29.63;;;6.50;99.90;;;;;;5025380;28;20045;-72
2022/12/23 07:09:09;;;;;;;118.55;36.05;;;6.50;99.90;;;;;;5037479;28;20045;-72
2022/12/23 07:11:34;;;;;;;73.43;28.25;;;6.50;99.90;;;;;;5024450;28;20050;-73
2022/12/23 07:14:01;;;;;;;82.07;31.33;;;6.50;99.90;;;;;;5026147;28;20060;-73
2022/12/23 07:16:27;;;;;;;78.53;31.27;;;6.50;99.90;;;;;;5024588;28;20041;-73
2022/12/23 07:18:52;;;;;;;80.93;30.10;;;6.50;99.90;;;;;;5024665;28;20090;-72
2022/12/23 07:21:18;;;;;;;80.93;30.65;;;6.50;99.90;;;;;;5029500;28;20045;-73
2022/12/23 07:23:43;;;;;;;96.78;34.10;;;6.50;99.90;;;;;;5013122;28;20117;-72
2022/12/23 07:26:10;;;;;;;129.30;36.05;;;6.50;99.90;;;;;;5026122;28;20239;-73
2022/12/23 07:28:36;;;;;;;94.75;32.97;;;6.50;99.90;;;;;;5025682;28;20049;-72
2022/12/23 07:31:05;;;;;;;78.38;28.83;;;6.50;99.90;;;;;;5027426;28;20387;-72
2022/12/23 07:33:31;;;;;;;79.75;29.38;;;6.50;99.90;;;;;;5025677;28;20799;-73
2022/12/23 07:35:58;;;;;;;76.68;28.83;;;6.50;99.90;;;;;;5018040;28;20510;-72
2022/12/23 07:38:23;;;;;;;139.45;30.15;;;6.50;99.90;;;;;;5026636;28;20460;-72
2022/12/23 07:40:49;;;;;;;148.77;34.45;;;6.50;99.90;;;;;;5018418;28;20045;-72
2022/12/23 07:43:15;;;;;;;150.73;34.20;;;6.50;99.90;;;;;;5025151;28;20037;-72
2022/12/23 07:45:40;;;;;;;75.80;28.95;;;6.50;99.90;;;;;;5020573;28;20045;-72
2022/12/23 07:48:07;;;;;;;88.03;28.08;;;6.50;99.90;;;;;;5026117;28;20037;-72
2022/12/23 07:50:33;;;;;;;74.65;28.02;;;6.50;99.90;;;;;;5025442;28;20124;-71
2022/12/23 07:53:02;;;;;;;60.45;26.40;;;6.50;99.90;;;;;;5025581;28;20046;-71
2022/12/23 07:55:27;;;;;;;77.90;26.70;;;6.50;99.90;;;;;;5023094;28;20049;-72
2022/12/23 07:57:53;;;;;;;89.03;29.10;;;6.50;99.90;;;;;;5026196;28;20045;-72
2022/12/23 08:00:20;;;;;;;67.35;26.98;;;6.50;99.90;;;;;;5028074;28;20463;-72
2022/12/23 08:02:46;;;;;;;77.38;25.85;;;6.50;99.90;;;;;;5029221;28;20073;-72
2022/12/23 08:05:13;;;;;;;83.22;29.35;;;6.50;99.90;;;;;;5029677;28;20080;-72
2022/12/23 08:07:38;;;;;;;115.85;32.08;;;6.50;99.90;;;;;;5029021;28;20399;-72
2022/12/23 08:10:05;;;;;;;74.25;25.73;;;6.50;99.90;;;;;;5032134;28;20071;-72
2022/12/23 08:12:31;;;;;;;73.30;27.02;;;6.60;99.90;;;;;;5028218;28;20045;-71
2022/12/23 08:14:57;;;;;;;75.80;28.48;;;6.60;99.90;;;;;;5020741;28;20713;-71
2022/12/23 08:17:29;;;;;;;68.32;26.02;;;6.60;99.90;;;;;;5025706;28;20096;-71
2022/12/23 08:19:55;;;;;;;69.97;26.88;;;6.60;99.90;;;;;;5021816;28;20470;-71
2022/12/23 08:22:22;;;;;;;65.63;26.73;;;6.60;99.90;;;;;;5025793;28;20071;-71
2022/12/23 08:24:48;;;;;;;67.90;25.55;;;6.60;99.90;;;;;;5027922;28;20088;-71
2022/12/23 08:27:15;;;;;;;59.00;26.75;;;6.60;99.90;;;;;;5027702;28;20057;-71
2022/12/23 08:29:41;;;;;;;89.60;28.15;;;6.60;99.90;;;;;;5029149;28;20076;-71
2022/12/23 08:32:07;;;;;;;70.53;24.92;;;6.70;99.90;;;;;;5030249;28;20112;-71
2022/12/23 08:34:33;;;;;;;63.70;25.00;;;6.70;99.90;;;;;;5027803;28;20499;-71
2022/12/23 08:36:59;;;;;;;69.88;26.58;;;6.60;99.90;;;;;;5023771;28;20088;-71
2022/12/23 08:39:26;;;;;;;69.60;28.20;;;6.60;99.90;;;;;;5027549;28;20805;-71
2022/12/23 08:41:52;;;;;;;82.63;29.13;;;6.70;99.90;;;;;;5024928;28;20041;-71
2022/12/23 08:44:18;;;;;;;86.45;28.60;;;6.70;99.90;;;;;;5023107;28;20120;-71
2022/12/23 08:46:44;;;;;;;82.03;27.92;;;6.70;99.90;;;;;;5027623;28;20061;-71
2022/12/23 08:49:10;;;;;;;97.88;32.42;;;6.70;99.90;;;;;;5026530;28;20159;-71
2022/12/23 08:51:37;;;;;;;73.43;29.40;;;6.70;99.90;;;;;;5027202;28;20128;-71
2022/12/23 08:54:03;;;;;;;70.28;28.45;;;6.70;99.90;;;;;;5022765;28;20049;-71
2022/12/23 08:56:34;;;;;;;92.03;29.77;;;6.80;99.90;;;;;;5029728;28;20045;-71
2022/12/23 08:59:01;;;;;;;73.18;26.20;;;6.80;99.90;;;;;;5025583;28;20068;-71
2022/12/23 09:01:29;;;;;;;66.70;28.05;;;6.80;99.90;;;;;;5025603;28;20053;-71
2022/12/23 09:03:56;;;;;;;;;;;6.80;99.90;;;;;;5023583;28;20045;-71
2022/12/23 09:06:28;;;;;;;101.03;30.77;;;6.80;99.90;;;;;;5028129;28;19921;-71
2022/12/23 09:08:54;;;;;;;74.93;28.25;;;6.80;99.90;;;;;;5027790;28;20041;-71
2022/12/23 09:11:22;;;;;;;68.90;28.88;;;6.80;99.90;;;;;;5032883;28;20037;-72
2022/12/23 09:13:48;;;;;;;95.57;31.85;;;6.80;99.90;;;;;;5028605;28;20045;-72
2022/12/23 09:16:15;;;;;;;64.47;26.90;;;6.90;99.90;;;;;;5026741;28;20037;-73
2022/12/23 09:18:40;;;;;;;77.30;29.25;;;6.90;99.90;;;;;;5022877;28;20085;-72
2022/12/23 09:21:11;;;;;;;72.40;29.85;;;6.90;99.90;;;;;;5027435;28;20115;-73
2022/12/23 09:23:36;;;;;;;66.45;26.95;;;6.90;99.90;;;;;;5028341;28;20427;-74
2022/12/23 09:26:07;;;;;;;57.45;25.20;;;6.90;99.90;;;;;;5027845;28;20046;-74
2022/12/23 09:28:33;;;;;;;64.25;25.63;;;7.00;99.90;;;;;;5021208;28;20454;-74
2022/12/23 09:31:09;;;;;;;52.72;22.88;;;7.00;99.90;;;;;;5027154;28;20037;-73
2022/12/23 09:33:35;;;;;;;53.33;22.70;;;7.00;99.90;;;;;;5027648;28;20049;-73
2022/12/23 09:36:02;;;;;;;52.28;23.60;;;7.00;99.90;;;;;;5027540;28;20116;-74
2022/12/23 09:38:28;;;;;;;58.10;25.02;;;7.00;99.90;;;;;;5023468;28;20045;-74
2022/12/23 09:41:05;;;;;;;60.90;24.02;;;7.00;99.90;;;;;;5027447;28;20103;-74
2022/12/23 09:43:43;;;;;;;43.47;21.00;;;7.00;99.90;;;;;;5027384;28;20077;-75
2022/12/23 09:46:17;;;;;;;;;;;7.00;99.90;;;;;;5019685;28;20077;-75
2022/12/23 09:48:57;;;;;;;47.13;20.35;;;7.10;99.90;;;;;;5036885;28;19921;-75
2022/12/23 09:51:24;;;;;;;35.30;17.95;;;7.10;99.90;;;;;;5025504;28;20041;-75
2022/12/23 09:54:24;;;;;;;33.10;17.23;;;7.10;99.90;;;;;;5024236;28;20038;-75
2022/12/23 09:57:26;;;;;;;30.35;16.73;;;7.20;99.90;;;;;;4984823;28;20415;-75
2022/12/23 10:00:08;;;;;;;41.20;19.13;;;7.20;99.90;;;;;;5021759;28;20057;-75
2022/12/23 10:02:37;;;;;;;37.20;18.42;;;7.20;99.90;;;;;;5029666;28;20041;-75
2022/12/23 10:05:15;;;;;;;30.23;17.88;;;7.20;99.90;;;;;;5027216;28;20373;-75
2022/12/23 10:08:13;;;;;;;32.88;17.10;;;7.30;99.90;;;;;;5023213;28;20045;-75
2022/12/23 10:10:59;;;;;;;39.63;19.27;;;7.30;99.90;;;;;;5026918;28;20124;-75
2022/12/23 10:13:51;;;;;;;41.20;19.90;;;7.30;99.90;;;;;;5027391;28;20081;-75
2022/12/23 10:16:41;;;;;;;32.70;20.52;;;7.40;99.90;;;;;;5024633;28;20077;-76
2022/12/23 10:19:22;;;;;;;37.38;21.15;;;7.40;99.90;;;;;;5018826;28;20049;-76
2022/12/23 10:21:58;;;;;;;35.88;21.17;;;7.40;99.90;;;;;;5026234;28;20057;-76
2022/12/23 10:24:29;;;;;;;39.00;21.73;;;7.40;99.90;;;;;;5020607;28;20061;-76
2022/12/23 10:27:14;;;;;;;46.30;23.15;;;7.50;99.90;;;;;;5009422;28;20049;-76
2022/12/23 10:29:41;;;;;;;42.13;21.88;;;7.50;99.90;;;;;;5024277;28;20117;-76
2022/12/23 10:32:44;;;;;;;39.35;21.08;;;7.50;99.90;;;;;;5025693;28;20041;-75
2022/12/23 10:35:41;;;;;;;32.30;18.75;;;7.50;99.90;;;;;;5025646;28;20049;-75
2022/12/23 10:38:34;;;;;;;31.52;16.90;;;7.60;99.90;;;;;;5026011;28;20042;-75
2022/12/23 10:41:05;;;;;;;34.45;17.15;;;7.60;99.90;;;;;;5025098;28;20086;-75
2022/12/23 10:43:55;;;;;;;36.17;17.95;;;7.60;99.90;;;;;;5025903;28;20037;-75
2022/12/23 10:46:38;;;;;;;29.77;16.83;;;7.60;99.90;;;;;;5011041;28;20041;-74
2022/12/23 10:49:53;;;;;;;33.00;17.92;;;7.60;99.90;;;;;;5016261;28;20059;-74
2022/12/23 10:52:27;;;;;;;35.85;17.67;;;7.70;99.90;;;;;;4968270;28;20176;-74
2022/12/23 10:54:52;;;;;;;36.15;18.80;;;7.70;99.90;;;;;;4968959;28;20938;-74
2022/12/23 10:57:19;;;;;;;53.13;25.15;;;7.70;99.90;;;;;;4996094;28;20053;-74
2022/12/23 10:59:45;;;;;;;47.92;25.88;;;7.70;99.90;;;;;;5019394;28;20045;-74
2022/12/23 11:02:11;;;;;;;50.00;24.75;;;7.70;99.90;;;;;;5026048;28;20045;-74
2022/12/23 11:04:45;;;;;;;47.85;25.65;;;7.80;99.90;;;;;;5026133;28;20044;-74
2022/12/23 11:07:19;;;;;;;40.92;21.45;;;7.80;99.90;;;;;;5025000;28;20049;-74
2022/12/23 11:09:53;;;;;;;47.20;20.77;;;7.80;99.90;;;;;;5025627;28;20517;-74
2022/12/23 11:12:25;;;;;;;42.55;20.90;;;7.80;99.90;;;;;;5026361;28;20046;-74
2022/12/23 11:14:53;;;;;;;49.00;21.05;;;7.80;99.90;;;;;;5018517;28;20077;-75
2022/12/23 11:17:24;;;;;;;44.65;21.80;;;7.80;99.90;;;;;;5025684;28;20474;-74
2022/12/23 11:20:09;;;;;;;48.03;23.20;;;7.80;99.90;;;;;;5024940;28;20042;-75
2022/12/23 11:22:36;;;;;;;45.13;23.17;;;7.80;99.90;;;;;;5025599;28;20128;-75
2022/12/23 11:25:39;;;;;;;49.30;22.95;;;7.80;99.90;;;;;;5025605;28;20053;-75
2022/12/23 11:28:10;;;;;;;47.17;22.38;;;7.80;99.90;;;;;;5021101;28;20054;-75
2022/12/23 11:31:07;;;;;;;46.38;23.30;;;7.80;99.90;;;;;;5022586;28;20049;-75
2022/12/23 11:33:48;;;;;;;41.90;21.23;;;7.80;99.90;;;;;;4996112;28;20061;-75
2022/12/23 11:36:24;;;;;;;46.78;22.38;;;7.80;99.90;;;;;;5025800;28;20050;-74
2022/12/23 11:39:02;;;;;;;42.42;22.23;;;7.80;99.90;;;;;;5025255;28;20099;-75
2022/12/23 11:41:34;;;;;;;47.40;23.98;;;7.90;99.90;;;;;;5025294;28;20045;-75
2022/12/23 11:44:05;;;;;;;50.60;25.52;;;7.80;99.90;;;;;;5025849;28;20049;-75
2022/12/23 11:46:33;;;;;;;47.63;24.88;;;7.80;99.90;;;;;;5024987;28;20100;-75
2022/12/23 11:49:15;;;;;;;53.03;25.58;;;7.80;99.90;;;;;;5025845;28;20045;-74
2022/12/23 11:51:43;;;;;;;46.72;24.38;;;7.90;99.90;;;;;;5039846;28;20049;-75
2022/12/23 11:54:16;;;;;;;47.78;25.25;;;7.90;99.90;;;;;;5026988;28;20499;-74
2022/12/23 11:56:42;;;;;;;40.75;23.05;;;7.90;99.90;;;;;;5024337;28;20041;-74
2022/12/23 11:59:26;;;;;;;52.80;26.23;;;7.80;99.90;;;;;;5025769;28;20094;-74
2022/12/23 12:01:53;;;;;;;52.20;26.75;;;7.80;99.90;;;;;;5018601;28;20053;-74
2022/12/23 12:04:24;;;;;;;46.75;26.58;;;7.90;99.90;;;;;;5021033;28;20088;-74
2022/12/23 12:06:51;;;;;;;47.03;25.55;;;7.80;99.90;;;;;;5020779;28;20072;-75
2022/12/23 12:09:18;;;;;;;53.50;24.40;;;7.90;99.90;;;;;;5026674;28;20049;-75
2022/12/23 12:11:50;;;;;;;48.03;23.27;;;7.90;99.90;;;;;;5025202;28;20053;-75
2022/12/23 12:14:28;;;;;;;49.42;25.98;;;7.90;99.90;;;;;;5024363;28;20045;-75
2022/12/23 12:17:20;;;;;;;53.07;23.53;;;7.90;99.90;;;;;;5021401;28;20050;-75
2022/12/23 12:20:00;;;;;;;53.90;25.30;;;7.90;99.90;;;;;;5022042;28;20045;-75
2022/12/23 12:22:43;;;;;;;60.75;26.35;;;7.90;99.90;;;;;;5022615;28;20069;-75
2022/12/23 12:25:19;;;;;;;55.15;25.75;;;7.90;99.90;;;;;;5024501;28;20045;-74
2022/12/23 12:27:58;;;;;;;52.13;25.65;;;8.00;99.90;;;;;;5032628;28;20045;-75
2022/12/23 12:30:33;;;;;;;56.88;25.75;;;8.00;99.90;;;;;;5024067;28;20072;-75
2022/12/23 12:33:04;;;;;;;52.75;25.92;;;8.00;99.90;;;;;;5019382;28;20080;-75
2022/12/23 12:35:41;;;;;;;53.30;26.60;;;8.00;99.90;;;;;;5027380;28;20041;-75
2022/12/23 12:38:27;;;;;;;52.05;26.38;;;8.00;99.90;;;;;;5028149;28;20045;-75
2022/12/23 12:40:58;;;;;;;49.83;26.63;;;8.00;99.90;;;;;;5025221;28;20132;-76
2022/12/23 12:43:46;;;;;;;52.03;26.13;;;8.00;99.90;;;;;;5027757;28;20045;-76
2022/12/23 12:46:29;;;;;;;49.10;25.90;;;8.00;99.90;;;;;;5027456;28;20069;-76
2022/12/23 12:49:10;;;;;;;50.63;28.52;;;8.00;99.90;;;;;;5022014;28;20049;-76
2022/12/23 12:51:41;;;;;;;58.35;28.45;;;8.00;99.90;;;;;;5035938;28;20596;-75
2022/12/23 12:54:23;;;;;;;52.33;26.42;;;8.00;99.90;;;;;;5028367;28;20052;-76
2022/12/23 12:56:52;;;;;;;59.50;28.13;;;8.00;99.90;;;;;;5021907;28;20046;-78
2022/12/23 12:59:26;;;;;;;56.50;28.90;;;7.90;99.90;;;;;;5023463;28;20127;-78
2022/12/23 13:02:27;;;;;;;53.38;28.80;;;7.90;99.90;;;;;;5026157;28;20556;-79
2022/12/23 13:05:01;;;;;;;61.45;29.50;;;7.90;99.90;;;;;;4997642;28;20069;-80
2022/12/23 13:07:33;;;;;;;50.30;28.17;;;7.90;99.90;;;;;;5027678;28;20049;-79
2022/12/23 13:10:11;;;;;;;63.08;29.75;;;7.90;99.90;;;;;;5027106;28;20502;-79
2022/12/23 13:13:05;;;;;;;55.85;29.92;;;7.90;99.90;;;;;;5028398;28;20071;-78
2022/12/23 13:15:46;;;;;;;61.63;32.03;;;7.90;99.90;;;;;;5027404;28;20136;-78
2022/12/23 13:18:27;;;;;;;65.05;31.50;;;7.90;99.90;;;;;;5024723;28;20089;-79
2022/12/23 13:21:02;;;;;;;69.95;31.35;;;7.80;99.90;;;;;;5021244;28;20050;-78
2022/12/23 13:23:59;;;;;;;74.13;32.00;;;7.80;99.90;;;;;;5025261;28;20045;-78
2022/12/23 13:26:51;;;;;;;73.47;31.77;;;7.90;99.90;;;;;;5020766;28;20087;-78
2022/12/23 13:29:41;;;;;;;68.50;30.58;;;7.80;99.90;;;;;;5027649;28;20046;-78
2022/12/23 13:32:29;;;;;;;72.15;33.40;;;7.80;99.90;;;;;;5027250;28;20084;-79